Time;durP1;ratioP1;P1;durP2;ratioP2;P2;SDS_P1;SDS_P2;PMS_P1;PMS_P2;Temp;Humidity;BMP_temperature;BMP_pressure;BME280_temperature;BME280_humidity;BME280_pressure;Samples;Min_cycle;Max_cycle;Signal;HPM_P1;HPM_P2
2022/02/25 00:02:15;;;;;;;1.77;0.30;;;;;;;;;;4955050;28;20036;-85
2022/02/25 00:04:41;;;;;;;0.73;0.20;;;;;;;;;;4953743;29;20036;-87
2022/02/25 00:07:07;;;;;;;2.20;0.20;;;;;;;;;;4950209;28;20150;-85
2022/02/25 00:09:33;;;;;;;0.47;0.20;;;;;;;;;;4930825;28;20066;-85
2022/02/25 00:11:59;;;;;;;0.70;0.30;;;;;;;;;;4933346;29;20079;-86
2022/02/25 00:14:25;;;;;;;0.33;0.10;;;;;;;;;;4949269;28;20031;-86
2022/02/25 00:16:51;;;;;;;0.10;0.10;;;;;;;;;;4962596;28;20103;-85
2022/02/25 00:19:18;;;;;;;0.43;0.13;;;;;;;;;;4949104;28;20551;-85
2022/02/25 00:21:44;;;;;;;0.77;0.20;;;;;;;;;;4960764;28;20031;-85
2022/02/25 00:24:10;;;;;;;3.63;0.20;;;;;;;;;;4959485;28;20034;-85
2022/02/25 00:26:36;;;;;;;0.63;0.20;;;;;;;;;;4935929;28;20035;-87
2022/02/25 00:29:03;;;;;;;0.57;0.10;;;;;;;;;;4961176;28;20042;-85
2022/02/25 00:31:29;;;;;;;1.30;0.20;;;;;;;;;;4963222;28;20037;-84
2022/02/25 00:33:55;;;;;;;2.73;0.10;;;;;;;;;;4944030;28;20050;-85
2022/02/25 00:36:21;;;;;;;0.30;0.20;;;;;;;;;;4958685;28;20193;-86
2022/02/25 00:38:48;;;;;;;0.83;0.20;;;;;;;;;;4933690;29;20039;-85
2022/02/25 00:41:14;;;;;;;1.00;0.23;;;;;;;;;;4926392;28;1082517;-85
2022/02/25 00:43:47;;;;;;;2.73;0.30;;;;;;;;;;4995040;23;20314;-85
2022/02/25 00:46:17;;;;;;;1.07;0.20;;;;;;;;;;4982533;28;20034;-85
2022/02/25 00:48:53;;;;;;;0.63;0.20;;;;;;;;;;4978694;28;20033;-86
2022/02/25 00:51:31;;;;;;;1.50;0.40;;;;;;;;;;4964309;28;20022;-86
2022/02/25 00:54:16;;;;;;;0.27;0.10;;;;;;;;;;4961868;28;20550;-86
2022/02/25 00:56:45;;;;;;;0.83;0.20;;;;;;;;;;4961025;28;20047;-85
2022/02/25 00:59:32;;;;;;;3.17;0.20;;;;;;;;;;4969694;28;20065;-86
2022/02/25 01:02:08;;;;;;;1.60;0.27;;;;;;;;;;4964147;28;20050;-85
2022/02/25 01:04:44;;;;;;;3.17;0.37;;;;;;;;;;4976974;28;20099;-84
2022/02/25 01:07:41;;;;;;;0.30;0.20;;;;;;;;;;4965135;28;20038;-86
2022/02/25 01:10:26;;;;;;;1.33;0.10;;;;;;;;;;4978229;28;20042;-85
2022/02/25 01:15:58;;;;;;;1.20;0.20;;;;;;;;;;4973608;28;20039;-86
2022/02/25 01:18:36;;;;;;;1.90;0.30;;;;;;;;;;4975953;28;20038;-86
2022/02/25 01:24:10;;;;;;;1.37;0.30;;;;;;;;;;4974118;28;20038;-85
2022/02/25 01:26:52;;;;;;;2.20;0.37;;;;;;;;;;4975567;28;20033;-85
2022/02/25 01:29:24;;;;;;;4.88;0.52;;;;;;;;;;4971622;28;20039;-86
2022/02/25 01:31:56;;;;;;;0.20;0.20;;;;;;;;;;4981326;28;20127;-87
2022/02/25 01:34:37;;;;;;;1.27;0.30;;;;;;;;;;4969106;28;20127;-87
2022/02/25 01:37:51;;;;;;;;;;;;;;;;;;;;;
2022/02/25 01:40:38;;;;;;;0.87;0.30;;;;;;;;;;4987123;28;20054;-87
2022/02/25 02:12:02;;;;;;;0.80;0.17;;;;;;;;;;4995338;28;20046;-86
2022/02/25 02:14:51;;;;;;;2.83;0.30;;;;;;;;;;4942757;28;20474;-87
2022/02/25 02:20:23;;;;;;;1.67;0.23;;;;;;;;;;4982233;28;20020;-87
2022/02/25 02:22:52;;;;;;;1.63;0.20;;;;;;;;;;4977540;28;20101;-87
2022/02/25 02:25:44;;;;;;;0.87;0.40;;;;;;;;;;4968081;28;20088;-87
2022/02/25 02:28:21;;;;;;;3.00;0.43;;;;;;;;;;4964959;28;20031;-87
2022/02/25 02:30:54;;;;;;;2.67;0.30;;;;;;;;;;4979786;28;20031;-87
2022/02/25 02:33:27;;;;;;;5.67;0.30;;;;;;;;;;4979053;28;20034;-87
2022/02/25 02:36:22;;;;;;;3.00;0.65;;;;;;;;;;4982899;28;20031;-87
2022/02/25 02:38:59;;;;;;;3.33;0.40;;;;;;;;;;4981296;28;20055;-86
2022/02/25 02:41:38;;;;;;;1.70;0.10;;;;;;;;;;4962986;28;20023;-87
2022/02/25 02:44:08;;;;;;;1.23;0.30;;;;;;;;;;4977349;28;20030;-87
2022/02/25 02:46:35;;;;;;;1.23;0.20;;;;;;;;;;4964904;28;20513;-87
2022/02/25 02:49:09;;;;;;;1.50;0.27;;;;;;;;;;4963508;28;20031;-87
2022/02/25 02:51:52;;;;;;;;;;;;;;;;;;;;;
2022/02/25 02:54:21;;;;;;;;;;;;;;;;;;4989686;28;20117;-87
2022/02/25 02:57:05;;;;;;;1.13;0.30;;;;;;;;;;4988698;28;19914;-87
2022/02/25 02:59:45;;;;;;;0.60;0.30;;;;;;;;;;4964207;28;20053;-86
2022/02/25 03:02:14;;;;;;;1.00;0.20;;;;;;;;;;4984109;28;20034;-87
2022/02/25 03:04:41;;;;;;;2.37;0.40;;;;;;;;;;4964789;28;20026;-86
2022/02/25 03:07:10;;;;;;;1.80;0.20;;;;;;;;;;4966590;28;20105;-86
2022/02/25 03:10:02;;;;;;;0.57;0.20;;;;;;;;;;4968712;28;20046;-87
2022/02/25 03:35:53;;;;;;;0.73;0.20;;;;;;;;;;4999163;28;20038;-87
2022/02/25 03:38:42;;;;;;;0.97;0.20;;;;;;;;;;4989983;28;20053;-88
2022/02/25 03:41:31;;;;;;;2.00;0.20;;;;;;;;;;4993159;28;20035;-87
2022/02/25 03:44:04;;;;;;;1.33;0.27;;;;;;;;;;4930465;28;20086;-87
2022/02/25 03:46:36;;;;;;;0.60;0.20;;;;;;;;;;4981945;28;20023;-86
2022/02/25 03:49:14;;;;;;;5.60;0.47;;;;;;;;;;4968913;28;20105;-87
2022/02/25 03:52:19;;;;;;;2.07;0.37;;;;;;;;;;4969477;28;20035;-87
2022/02/25 03:55:11;;;;;;;1.93;0.20;;;;;;;;;;4967473;28;20061;-87
2022/02/25 03:58:01;;;;;;;2.20;0.38;;;;;;;;;;4957372;28;20027;-87
2022/02/25 04:00:54;;;;;;;0.40;0.10;;;;;;;;;;4948959;28;20035;-87
2022/02/25 04:03:35;;;;;;;2.35;0.30;;;;;;;;;;4986020;28;20026;-86
2022/02/25 04:06:38;;;;;;;0.67;0.10;;;;;;;;;;4967625;28;20031;-86
2022/02/25 04:09:27;;;;;;;1.10;0.40;;;;;;;;;;4921986;29;20058;-86
2022/02/25 04:12:26;;;;;;;;;;;;;;;;;;;;;
2022/02/25 04:21:09;;;;;;;3.87;0.83;;;;;;;;;;4930416;28;20061;-86
2022/02/25 04:23:53;;;;;;;0.30;0.20;;;;;;;;;;4968845;28;20118;-87
2022/02/25 04:29:23;;;;;;;0.47;0.13;;;;;;;;;;4978208;28;20046;-86
2022/02/25 04:35:10;;;;;;;3.30;0.40;;;;;;;;;;4953256;29;20031;-87
2022/02/25 04:37:39;;;;;;;0.87;0.30;;;;;;;;;;4949823;28;20099;-87
2022/02/25 04:40:28;;;;;;;1.73;0.30;;;;;;;;;;4954300;28;20031;-86
2022/02/25 04:43:06;;;;;;;0.73;0.20;;;;;;;;;;4983616;28;20031;-86
2022/02/25 04:45:48;;;;;;;;;;;;;;;;;;;;;
2022/02/25 04:48:38;;;;;;;0.82;0.30;;;;;;;;;;4982470;28;20098;-86
2022/02/25 04:51:13;;;;;;;2.73;0.30;;;;;;;;;;4969784;28;20077;-87
2022/02/25 04:54:17;;;;;;;4.67;0.60;;;;;;;;;;5150867;23;20133;-86
2022/02/25 05:00:20;;;;;;;;;;;;;;;;;;;;;
2022/02/25 05:02:59;;;;;;;2.60;0.40;;;;;;;;;;4934641;29;20638;-87
2022/02/25 05:08:44;;;;;;;1.83;0.30;;;;;;;;;;4956684;29;20054;-87
2022/02/25 05:11:51;;;;;;;;;;;;;;;;;;;;;
2022/02/25 05:23:02;;;;;;;1.50;0.20;;;;;;;;;;4987899;28;20038;-86
2022/02/25 05:25:39;;;;;;;;;;;;;;;;;;4977878;28;20046;-87
2022/02/25 05:28:52;;;;;;;1.77;0.50;;;;;;;;;;4978254;28;19938;-86
2022/02/25 05:31:24;;;;;;;2.67;0.43;;;;;;;;;;4905189;29;20040;-86
2022/02/25 05:34:18;;;;;;;;;;;;;;;;;;;;;
2022/02/25 05:45:41;;;;;;;3.63;0.70;;;;;;;;;;4891132;28;20069;-87
2022/02/25 06:01:02;;;;;;;4.53;0.60;;;;;;;;;;4950140;29;20027;-86
2022/02/25 06:29:32;;;;;;;2.67;0.20;;;;;;;;;;3901964;23;20054;-86
2022/02/25 06:32:01;;;;;;;2.47;0.40;;;;;;;;;;4992668;28;20117;-86
2022/02/25 06:34:37;;;;;;;3.80;0.43;;;;;;;;;;4981286;28;20035;-85
2022/02/25 06:37:07;;;;;;;2.70;0.33;;;;;;;;;;4987420;28;20798;-87
2022/02/25 06:39:40;;;;;;;3.27;0.30;;;;;;;;;;4967604;28;20042;-85
2022/02/25 06:44:52;;;;;;;4.00;0.27;;;;;;;;;;4997757;23;19922;-87
2022/02/25 06:47:26;;;;;;;1.93;0.30;;;;;;;;;;4980231;28;20038;-88
2022/02/25 06:49:55;;;;;;;1.27;0.30;;;;;;;;;;4983505;28;20109;-88
2022/02/25 06:52:31;;;;;;;7.77;0.70;;;;;;;;;;4985323;28;20116;-87
2022/02/25 06:54:57;;;;;;;2.93;0.43;;;;;;;;;;5002750;28;20030;-88
2022/02/25 06:57:26;;;;;;;4.20;0.47;;;;;;;;;;5005957;28;20585;-88
2022/02/25 07:00:21;;;;;;;3.27;0.70;;;;;;;;;;5004695;28;20430;-87
2022/02/25 07:02:50;;;;;;;2.97;0.40;;;;;;;;;;4966382;28;20065;-87
2022/02/25 07:08:28;;;;;;;5.63;0.55;;;;;;;;;;4991867;28;20022;-87
2022/02/25 07:17:09;;;;;;;9.97;1.50;;;;;;;;;;4901572;29;20041;-88
2022/02/25 07:20:05;;;;;;;3.07;0.70;;;;;;;;;;4886643;29;20104;-87
2022/02/25 07:22:50;;;;;;;;;;;;;;;;;;;;;
2022/02/25 07:32:32;;;;;;;1.30;0.40;;;;;;;;;;4847550;29;20034;-87
2022/02/25 07:35:17;;;;;;;;;;;;;;;;;;;;;
2022/02/25 07:38:08;;;;;;;4.23;0.50;;;;;;;;;;4791438;29;20150;-87
2022/02/25 07:40:53;;;;;;;1.80;0.40;;;;;;;;;;4909355;29;20032;-86
2022/02/25 07:43:48;;;;;;;1.90;0.77;;;;;;;;;;4901365;29;20068;-87
2022/02/25 07:46:53;;;;;;;;;;;;;;;;;;;;;
2022/02/25 07:49:19;;;;;;;5.10;0.53;;;;;;;;;;4974460;28;20586;-83
2022/02/25 07:51:52;;;;;;;7.10;0.40;;;;;;;;;;4984482;28;20097;-84
2022/02/25 07:54:21;;;;;;;2.93;0.20;;;;;;;;;;4985232;28;20030;-84
2022/02/25 07:56:48;;;;;;;3.53;0.50;;;;;;;;;;4995324;28;20056;-84
2022/02/25 07:59:14;;;;;;;4.27;1.17;;;;;;;;;;4996557;28;20058;-84
2022/02/25 08:01:41;;;;;;;2.63;0.63;;;;;;;;;;4996308;28;20054;-84
2022/02/25 08:04:08;;;;;;;6.13;0.70;;;;;;;;;;4977112;28;20030;-84
2022/02/25 08:06:36;;;;;;;3.90;0.40;;;;;;;;;;4975582;28;20034;-84
2022/02/25 08:09:03;;;;;;;1.40;0.30;;;;;;;;;;4981136;28;20051;-84
2022/02/25 08:11:35;;;;;;;0.73;0.27;;;;;;;;;;4970703;28;20039;-84
2022/02/25 08:14:03;;;;;;;5.10;0.70;;;;;;;;;;4975458;28;20042;-84
2022/02/25 08:16:32;;;;;;;3.97;0.37;;;;;;;;;;4975093;28;20042;-84
2022/02/25 08:19:01;;;;;;;1.50;0.40;;;;;;;;;;4986795;28;20399;-83
2022/02/25 08:21:27;;;;;;;2.60;0.70;;;;;;;;;;4964501;28;20051;-86
2022/02/25 08:23:56;;;;;;;2.70;0.30;;;;;;;;;;4975490;28;20023;-84
2022/02/25 08:26:22;;;;;;;3.93;0.40;;;;;;;;;;4962810;28;20042;-84
2022/02/25 08:28:55;;;;;;;1.80;0.20;;;;;;;;;;4971169;28;20031;-84
2022/02/25 08:31:26;;;;;;;1.80;0.23;;;;;;;;;;4968792;28;20513;-84
2022/02/25 08:33:55;;;;;;;4.77;0.37;;;;;;;;;;4974996;28;20046;-84
2022/02/25 08:36:39;;;;;;;1.17;0.20;;;;;;;;;;4974696;28;20030;-84
2022/02/25 08:39:05;;;;;;;1.40;0.30;;;;;;;;;;4990181;28;20035;-84
2022/02/25 08:41:32;;;;;;;1.37;0.50;;;;;;;;;;4965108;28;20026;-84
2022/02/25 08:43:58;;;;;;;2.97;0.30;;;;;;;;;;4972012;28;20103;-85
2022/02/25 08:46:24;;;;;;;4.00;0.47;;;;;;;;;;4992795;28;20045;-84
2022/02/25 08:48:50;;;;;;;1.30;0.47;;;;;;;;;;4975199;28;20026;-85
2022/02/25 08:51:16;;;;;;;2.27;0.47;;;;;;;;;;4970671;28;20491;-84
2022/02/25 08:53:42;;;;;;;4.37;0.40;;;;;;;;;;4973518;28;20061;-85
2022/02/25 08:56:09;;;;;;;1.30;0.23;;;;;;;;;;4991958;28;20034;-85
2022/02/25 08:58:35;;;;;;;4.27;0.50;;;;;;;;;;4974971;28;20053;-85
2022/02/25 09:01:02;;;;;;;3.47;0.40;;;;;;;;;;4963930;28;20514;-85
2022/02/25 09:03:28;;;;;;;2.37;0.90;;;;;;;;;;4974761;28;20141;-85
2022/02/25 09:05:54;;;;;;;2.27;0.33;;;;;;;;;;4973492;28;20538;-85
2022/02/25 09:08:21;;;;;;;4.37;0.60;;;;;;;;;;4967103;28;20026;-85
2022/02/25 09:10:49;;;;;;;1.77;0.40;;;;;;;;;;4969786;28;20034;-84
2022/02/25 09:13:15;;;;;;;3.97;0.37;;;;;;;;;;4969510;28;20034;-85
2022/02/25 09:15:41;;;;;;;5.00;0.67;;;;;;;;;;4977846;28;20113;-85
2022/02/25 09:18:10;;;;;;;2.63;0.50;;;;;;;;;;4987253;28;20026;-84
2022/02/25 09:20:43;;;;;;;6.47;0.33;;;;;;;;;;4968440;28;20026;-85
2022/02/25 09:23:12;;;;;;;6.90;0.30;;;;;;;;;;4974913;28;20429;-85
2022/02/25 09:26:13;;;;;;;;;;;;;;;;;;;;;
2022/02/25 09:29:13;;;;;;;2.90;0.97;;;;;;;;;;4977925;28;20076;-85
2022/02/25 09:31:49;;;;;;;2.73;0.50;;;;;;;;;;4968041;28;20073;-85
2022/02/25 09:34:24;;;;;;;3.90;0.67;;;;;;;;;;4987080;28;20098;-85
2022/02/25 09:37:45;;;;;;;;;;;;;;;;;;;;;
2022/02/25 09:43:16;;;;;;;3.10;0.37;;;;;;;;;;4987529;28;20053;-85
2022/02/25 09:46:03;;;;;;;1.80;0.50;;;;;;;;;;4971923;28;20041;-85
2022/02/25 09:49:05;;;;;;;;;;;;;;;;;;;;;
2022/02/25 09:51:55;;;;;;;2.55;0.50;;;;;;;;;;4991093;28;20033;-85
2022/02/25 09:54:34;;;;;;;4.97;0.40;;;;;;;;;;4968983;28;20678;-85
2022/02/25 09:57:00;;;;;;;3.07;0.40;;;;;;;;;;4976835;28;20110;-85
2022/02/25 09:59:34;;;;;;;4.30;0.90;;;;;;;;;;4974170;28;20050;-85
2022/02/25 10:05:33;;;;;;;2.80;0.37;;;;;;;;;;4976154;28;20034;-85
2022/02/25 10:08:28;;;;;;;;;;;;;;;;;;;;;
2022/02/25 10:11:03;;;;;;;3.77;0.43;;;;;;;;;;4908956;29;20040;-86
2022/02/25 10:13:38;;;;;;;4.17;0.40;;;;;;;;;;4900422;29;20028;-86
2022/02/25 10:16:09;;;;;;;5.60;0.50;;;;;;;;;;4939129;28;20082;-86
2022/02/25 10:19:09;;;;;;;2.87;0.30;;;;;;;;;;4962789;28;20037;-85
2022/02/25 10:21:41;;;;;;;3.63;0.30;;;;;;;;;;4956101;28;20463;-86
2022/02/25 10:24:07;;;;;;;;;;;;;;;;;;4976919;28;20125;-85
2022/02/25 10:26:41;;;;;;;1.40;0.27;;;;;;;;;;4989438;28;19914;-85
2022/02/25 10:29:13;;;;;;;5.43;0.30;;;;;;;;;;4969170;28;20418;-85
2022/02/25 10:32:22;;;;;;;4.13;0.20;;;;;;;;;;4974918;28;20050;-85
2022/02/25 10:35:11;;;;;;;1.63;0.30;;;;;;;;;;4982603;28;20065;-85
2022/02/25 10:37:52;;;;;;;1.75;0.85;;;;;;;;;;4987197;28;20037;-85
2022/02/25 10:40:25;;;;;;;3.13;0.20;;;;;;;;;;4971089;28;20492;-88
2022/02/25 10:42:55;;;;;;;2.47;0.80;;;;;;;;;;4984800;28;20042;-86
2022/02/25 10:49:14;;;;;;;1.90;0.27;;;;;;;;;;4949830;28;20041;-86
2022/02/25 10:54:41;;;;;;;3.03;0.37;;;;;;;;;;4969826;28;20043;-86
2022/02/25 10:57:12;;;;;;;2.50;0.20;;;;;;;;;;4971606;28;20041;-86
2022/02/25 10:59:42;;;;;;;2.25;0.20;;;;;;;;;;4990232;28;20023;-85
2022/02/25 11:02:32;;;;;;;1.57;0.20;;;;;;;;;;4971819;28;20030;-85
2022/02/25 11:04:59;;;;;;;1.43;0.23;;;;;;;;;;4980135;28;20047;-86
2022/02/25 11:07:30;;;;;;;2.27;0.40;;;;;;;;;;4973772;28;20049;-86
2022/02/25 11:10:00;;;;;;;0.80;0.20;;;;;;;;;;4967939;28;20137;-86
2022/02/25 11:12:28;;;;;;;2.30;0.50;;;;;;;;;;4978546;28;20498;-86
2022/02/25 11:14:59;;;;;;;2.33;0.37;;;;;;;;;;4974656;28;20026;-86
2022/02/25 11:17:38;;;;;;;2.20;0.30;;;;;;;;;;4970759;28;20041;-86
2022/02/25 11:20:11;;;;;;;1.77;0.30;;;;;;;;;;4970870;28;20113;-86
2022/02/25 11:22:41;;;;;;;1.53;0.10;;;;;;;;;;4993919;28;20031;-86
2022/02/25 11:25:20;;;;;;;1.53;0.10;;;;;;;;;;4980975;28;20062;-86
2022/02/25 11:27:48;;;;;;;2.23;0.23;;;;;;;;;;4977556;28;20034;-86
2022/02/25 11:30:15;;;;;;;4.03;0.20;;;;;;;;;;4974015;28;20046;-87
2022/02/25 11:33:04;;;;;;;2.10;0.40;;;;;;;;;;4973112;28;20038;-86
2022/02/25 11:35:35;;;;;;;3.60;0.30;;;;;;;;;;4987530;28;20112;-86
2022/02/25 11:38:05;;;;;;;2.40;0.30;;;;;;;;;;4992367;28;20018;-86
2022/02/25 11:40:51;;;;;;;1.70;0.20;;;;;;;;;;4974445;28;20038;-86
2022/02/25 11:43:30;;;;;;;1.47;0.20;;;;;;;;;;4972129;28;20038;-87
2022/02/25 11:45:56;;;;;;;5.13;0.73;;;;;;;;;;4974017;28;20038;-86
2022/02/25 11:48:42;;;;;;;2.13;0.30;;;;;;;;;;4973235;28;20034;-86
2022/02/25 11:51:25;;;;;;;3.03;0.40;;;;;;;;;;4975122;28;20133;-86
2022/02/25 11:54:09;;;;;;;1.10;0.30;;;;;;;;;;4982100;28;20466;-86
2022/02/25 11:56:35;;;;;;;3.30;0.30;;;;;;;;;;4988578;28;20046;-85
2022/02/25 11:59:02;;;;;;;2.40;0.33;;;;;;;;;;4991977;28;20023;-86
2022/02/25 12:01:31;;;;;;;1.70;0.30;;;;;;;;;;4975711;28;20042;-86
2022/02/25 12:04:09;;;;;;;4.10;0.63;;;;;;;;;;4988847;28;20029;-87
2022/02/25 12:06:54;;;;;;;3.23;0.33;;;;;;;;;;4972925;28;20407;-88
2022/02/25 12:09:46;;;;;;;1.40;0.20;;;;;;;;;;4979553;28;20078;-86
2022/02/25 12:12:55;;;;;;;0.85;0.20;;;;;;;;;;4992861;28;20038;-86
2022/02/25 12:15:44;;;;;;;4.40;0.60;;;;;;;;;;4930851;28;20045;-86
2022/02/25 12:18:28;;;;;;;2.73;0.27;;;;;;;;;;4975474;28;20652;-86
2022/02/25 12:21:15;;;;;;;3.70;0.30;;;;;;;;;;4979063;28;20026;-86
2022/02/25 12:23:43;;;;;;;3.83;0.57;;;;;;;;;;4975698;28;20050;-86
2022/02/25 12:26:38;;;;;;;2.43;0.43;;;;;;;;;;4975232;28;20034;-87
2022/02/25 12:32:49;;;;;;;1.80;0.27;;;;;;;;;;4991478;28;20025;-86
2022/02/25 12:35:42;;;;;;;4.07;0.57;;;;;;;;;;4932052;29;20068;-86
2022/02/25 12:38:15;;;;;;;1.57;0.23;;;;;;;;;;4976656;28;20042;-85
2022/02/25 12:41:05;;;;;;;;;;;;;;;;;;;;;
2022/02/25 12:44:05;;;;;;;1.20;0.30;;;;;;;;;;4990626;28;20544;-85
2022/02/25 12:47:05;;;;;;;3.97;0.37;;;;;;;;;;4973883;28;20070;-85
2022/02/25 12:50:14;;;;;;;5.57;0.37;;;;;;;;;;4970431;28;20145;-86
2022/02/25 12:53:02;;;;;;;4.83;0.50;;;;;;;;;;4892851;29;20056;-86
2022/02/25 12:59:31;;;;;;;1.67;0.20;;;;;;;;;;4957911;28;20307;-86
2022/02/25 13:02:04;;;;;;;1.50;0.30;;;;;;;;;;4986547;28;20525;-85
2022/02/25 13:14:03;;;;;;;4.20;0.60;;;;;;;;;;4912155;29;20661;-85
2022/02/25 13:17:05;;;;;;;;;;;;;;;;;;;;;
2022/02/25 14:27:40;;;;;;;;;;;;;;;;;;;;;
2022/02/25 14:30:34;;;;;;;1.70;0.30;;;;;;;;;;4993879;28;20042;-86
2022/02/25 14:39:21;;;;;;;;;;;;;;;;;;;;;
2022/02/25 14:48:14;;;;;;;3.67;0.30;;;;;;;;;;4970518;28;20243;-85
2022/02/25 14:54:34;;;;;;;;;;;;;;;;;;;;;
2022/02/25 15:00:46;;;;;;;2.83;0.70;;;;;;;;;;4920127;29;20036;-86
2022/02/25 15:06:33;;;;;;;3.13;0.38;;;;;;;;;;4808666;29;20054;-87
2022/02/25 15:09:15;;;;;;;;;;;;;;;;;;;;;
2022/02/25 15:11:47;;;;;;;;;;;;;;;;;;4968635;28;20043;-86
2022/02/25 15:14:17;;;;;;;3.80;0.40;;;;;;;;;;4981920;28;19906;-85
2022/02/25 15:16:49;;;;;;;1.53;0.23;;;;;;;;;;4971102;28;20042;-85
2022/02/25 15:19:19;;;;;;;1.98;0.30;;;;;;;;;;4984839;28;20023;-85
2022/02/25 15:21:45;;;;;;;1.43;0.27;;;;;;;;;;4979800;28;20018;-85
2022/02/25 15:24:18;;;;;;;1.40;0.30;;;;;;;;;;4986187;28;20082;-85
2022/02/25 15:27:07;;;;;;;;;;;;;;;;;;;;;
2022/02/25 15:30:03;;;;;;;1.83;0.43;;;;;;;;;;4988697;28;20113;-86
2022/02/25 15:32:39;;;;;;;2.27;0.20;;;;;;;;;;4999347;28;20105;-85
2022/02/25 15:35:06;;;;;;;0.90;0.20;;;;;;;;;;4994703;28;20022;-86
2022/02/25 15:37:35;;;;;;;3.27;0.40;;;;;;;;;;4981605;28;20066;-86
2022/02/25 15:40:07;;;;;;;1.93;0.33;;;;;;;;;;4974340;28;20049;-86
2022/02/25 15:42:39;;;;;;;2.47;0.30;;;;;;;;;;4964532;28;20023;-85
2022/02/25 15:45:31;;;;;;;;;;;;;;;;;;;;;
2022/02/25 15:48:03;;;;;;;2.63;0.30;;;;;;;;;;4984716;28;20110;-86
2022/02/25 15:50:43;;;;;;;4.75;0.60;;;;;;;;;;4982991;28;20037;-86
2022/02/25 15:53:19;;;;;;;4.03;0.60;;;;;;;;;;4978694;28;20045;-85
2022/02/25 15:56:02;;;;;;;5.87;0.30;;;;;;;;;;4986715;28;20037;-85
2022/02/25 15:58:57;;;;;;;3.40;0.37;;;;;;;;;;4986392;28;20026;-86
2022/02/25 16:01:31;;;;;;;6.47;0.60;;;;;;;;;;4983094;28;20023;-86
2022/02/25 16:04:11;;;;;;;5.27;0.80;;;;;;;;;;4999748;28;20014;-87
2022/02/25 16:06:51;;;;;;;3.07;0.20;;;;;;;;;;4999849;28;20029;-86
2022/02/25 16:09:33;;;;;;;1.17;0.20;;;;;;;;;;5001465;28;20046;-87
2022/02/25 16:12:12;;;;;;;1.48;0.50;;;;;;;;;;4964624;28;20069;-88
2022/02/25 16:14:57;;;;;;;3.07;0.30;;;;;;;;;;4994571;28;20030;-87
2022/02/25 16:17:28;;;;;;;3.07;0.40;;;;;;;;;;4994415;28;20081;-86
2022/02/25 16:23:55;;;;;;;1.37;0.30;;;;;;;;;;4994672;28;20038;-86
2022/02/25 16:29:09;;;;;;;;;;;;;;;;;;;;;
2022/02/25 16:32:29;;;;;;;2.83;0.40;;;;;;;;;;4993906;28;20033;-86
2022/02/25 17:16:46;;;;;;;2.63;0.50;;;;;;;;;;4955992;28;20039;-86
2022/02/25 18:13:08;;;;;;;4.93;0.40;;;;;;;;;;4912218;29;19915;-87
2022/02/25 18:56:09;;;;;;;4.20;1.07;;;;;;;;;;5124354;23;20078;-87
2022/02/25 21:07:03;;;;;;;5.77;0.83;;;;;;;;;;4712359;23;20120;-88
2022/02/25 21:09:29;;;;;;;2.20;0.70;;;;;;;;;;4897808;29;21088;-87
2022/02/25 21:11:57;;;;;;;3.40;1.00;;;;;;;;;;4896095;29;20028;-89
2022/02/25 21:14:23;;;;;;;4.97;1.23;;;;;;;;;;4899425;29;20028;-89
2022/02/25 21:17:01;;;;;;;3.13;0.87;;;;;;;;;;4898187;29;20047;-89
2022/02/25 21:19:27;;;;;;;3.43;1.00;;;;;;;;;;4901682;29;20089;-89
2022/02/25 21:21:56;;;;;;;3.83;1.23;;;;;;;;;;4887166;29;20028;-88
2022/02/25 21:24:22;;;;;;;4.70;1.00;;;;;;;;;;4889590;29;20064;-89
2022/02/25 21:26:49;;;;;;;6.80;1.20;;;;;;;;;;4895933;29;20043;-89
2022/02/25 21:29:15;;;;;;;7.83;1.20;;;;;;;;;;4892785;29;20029;-90
2022/02/25 21:31:42;;;;;;;4.67;1.10;;;;;;;;;;4898550;29;20709;-89
2022/02/25 21:34:12;;;;;;;5.33;1.50;;;;;;;;;;4893348;29;20048;-88
2022/02/25 21:36:41;;;;;;;6.23;1.73;;;;;;;;;;4890838;29;20039;-89
2022/02/25 21:39:10;;;;;;;3.80;1.00;;;;;;;;;;4895774;29;20115;-89
2022/02/25 21:41:37;;;;;;;5.03;1.20;;;;;;;;;;4892894;29;20033;-89
2022/02/25 21:44:04;;;;;;;4.77;0.97;;;;;;;;;;4897366;29;20035;-89
2022/02/25 21:46:30;;;;;;;2.00;0.80;;;;;;;;;;4893729;29;20037;-89
2022/02/25 21:48:56;;;;;;;3.93;0.90;;;;;;;;;;4893488;29;20029;-89
2022/02/25 21:51:25;;;;;;;4.03;0.90;;;;;;;;;;4893912;29;20104;-88
2022/02/25 21:53:52;;;;;;;5.80;1.17;;;;;;;;;;4892238;29;20485;-89
2022/02/25 21:56:19;;;;;;;6.17;1.10;;;;;;;;;;4893452;29;20044;-90
2022/02/25 21:58:45;;;;;;;5.73;1.20;;;;;;;;;;4890425;29;20123;-89
2022/02/25 22:01:21;;;;;;;4.80;1.03;;;;;;;;;;4892940;29;20043;-89
2022/02/25 22:03:52;;;;;;;4.47;0.73;;;;;;;;;;4876303;29;20119;-88
2022/02/25 22:06:18;;;;;;;2.87;0.70;;;;;;;;;;4893153;29;20040;-89
2022/02/25 22:08:44;;;;;;;6.27;0.90;;;;;;;;;;4891717;29;20077;-89
2022/02/25 22:11:11;;;;;;;4.73;1.20;;;;;;;;;;4886964;29;20029;-89
2022/02/25 22:13:37;;;;;;;3.03;0.90;;;;;;;;;;4886256;29;20132;-89
2022/02/25 22:16:06;;;;;;;4.00;0.90;;;;;;;;;;4885584;29;20033;-89
2022/02/25 22:18:35;;;;;;;6.37;0.93;;;;;;;;;;4887039;29;20121;-89
2022/02/25 22:21:01;;;;;;;4.57;1.03;;;;;;;;;;4879213;29;20056;-89
2022/02/25 22:23:34;;;;;;;3.07;0.80;;;;;;;;;;4891467;29;20128;-90
2022/02/25 22:26:00;;;;;;;3.30;0.83;;;;;;;;;;4890533;29;20024;-89
2022/02/25 22:28:33;;;;;;;7.93;1.00;;;;;;;;;;4876878;29;20037;-89
2022/02/25 22:30:59;;;;;;;4.80;0.87;;;;;;;;;;4895765;29;20039;-89
2022/02/25 22:33:25;;;;;;;3.03;0.80;;;;;;;;;;4884302;29;20041;-89
2022/02/25 22:35:52;;;;;;;10.33;1.40;;;;;;;;;;4894978;29;20152;-89
2022/02/25 22:38:25;;;;;;;4.23;0.93;;;;;;;;;;4880923;29;20040;-88
2022/02/25 22:40:51;;;;;;;1.93;0.67;;;;;;;;;;4891447;29;21689;-88
2022/02/25 22:43:18;;;;;;;2.80;0.73;;;;;;;;;;4891840;29;20040;-89
2022/02/25 22:45:45;;;;;;;5.17;1.20;;;;;;;;;;4876257;29;20028;-89
2022/02/25 22:48:11;;;;;;;3.83;0.90;;;;;;;;;;4879592;29;20044;-89
2022/02/25 23:01:43;;;;;;;2.73;0.67;;;;;;;;;;4896951;29;20089;-89
2022/02/25 23:04:09;;;;;;;3.50;0.63;;;;;;;;;;4895619;29;20043;-88
2022/02/25 23:09:19;;;;;;;2.93;0.70;;;;;;;;;;4893852;29;20075;-88
2022/02/25 23:11:45;;;;;;;1.53;0.50;;;;;;;;;;4878480;29;20061;-88
2022/02/25 23:14:12;;;;;;;1.63;0.50;;;;;;;;;;4876986;29;20503;-88
2022/02/25 23:16:39;;;;;;;2.47;0.60;;;;;;;;;;4879601;29;20033;-87
2022/02/25 23:19:05;;;;;;;7.23;0.77;;;;;;;;;;4897739;29;20097;-88
2022/02/25 23:21:31;;;;;;;2.67;0.73;;;;;;;;;;4889811;29;20032;-87
2022/02/25 23:23:57;;;;;;;2.50;0.67;;;;;;;;;;4898686;29;20029;-87
2022/02/25 23:26:23;;;;;;;3.30;0.97;;;;;;;;;;4886349;29;20561;-88
2022/02/25 23:28:50;;;;;;;3.90;0.97;;;;;;;;;;4879283;29;20048;-87
2022/02/25 23:31:16;;;;;;;2.20;0.50;;;;;;;;;;4878785;29;20166;-87
2022/02/25 23:33:43;;;;;;;3.27;0.77;;;;;;;;;;4878907;29;20478;-87
2022/02/25 23:36:12;;;;;;;3.93;0.60;;;;;;;;;;4889789;29;20037;-86
2022/02/25 23:38:38;;;;;;;3.00;0.60;;;;;;;;;;4897705;29;20045;-87
2022/02/25 23:41:04;;;;;;;3.43;0.67;;;;;;;;;;4890900;29;20512;-87
2022/02/25 23:43:31;;;;;;;4.67;1.00;;;;;;;;;;4880269;29;20388;-86
2022/02/25 23:45:57;;;;;;;4.70;1.27;;;;;;;;;;4880382;29;20040;-87
2022/02/25 23:48:23;;;;;;;2.17;0.70;;;;;;;;;;4883575;29;20029;-86
2022/02/25 23:50:51;;;;;;;2.10;0.50;;;;;;;;;;4908720;29;20067;-87
2022/02/25 23:53:17;;;;;;;2.10;0.53;;;;;;;;;;4904911;29;20122;-86
2022/02/25 23:55:44;;;;;;;2.33;0.60;;;;;;;;;;4913980;29;20103;-86
2022/02/25 23:58:10;;;;;;;2.43;0.70;;;;;;;;;;4914910;29;20047;-86
